Weather observations for the past three days for
Pittsburgh International Airport
Imperial (Metric)
Date Time (edt) Wind (mph) Vis. (mi.) Weather Sky Cond. Temperature (ºF) Relative Humidity Wind Chill (°F) Heat Index (°F) Pressure Precipitation (in)
Air Dwpt 6 hour altimeter (in) sea level (mb) 1 hr 3 hr 6 hr
Max. Min.
10 12:51 N 9 10.00 Mostly Cloudy FEW025 SCT065 BKN100 57.9 42.1 56% 30.01 1017.0
10 11:51 N 5 10.00 Mostly Cloudy FEW009 BKN065 BKN100 54 48 80% 30 1016.7
10 10:51 N 7 10.00 Overcast SCT009 OVC060 53.1 50 89% 29.99 1016.3 0.01
10 09:51 NW 7 10.00 Overcast SCT004 OVC050 54 52 93% 29.96 1015.3 0.01
10 08:51 NW 9 2.00 Light Rain Fog/Mist SCT002 OVC006 53.1 52 96% 29.94 1014.6
10 07:51 SW 3 10.00 Overcast FEW001 BKN016 OVC075 54 52 55 50 93% 29.91 1013.3 0.01
10 06:51 Calm 9.00 Mostly Cloudy FEW001 SCT090 BKN250 52 51.1 97% 29.86 1011.8
10 05:51 Calm 6.00 Fog/Mist FEW001 FEW050 BKN100 52 51.1 97% 29.84 1011.1
10 04:51 NW 3 10.00 Mostly Cloudy SCT065 BKN090 54 52 93% 29.83 1010.5 0.01
10 03:51 S 3 10.00 Mostly Cloudy FEW026 SCT060 BKN080 54 53.1 97% 29.8 1009.6
10 02:51 Calm 8.00 Light Rain FEW014 BKN050 OVC070 54 53.1 97% 29.8 1009.7 0.01
10 01:51 S 5 10.00 Partly Cloudy FEW012 FEW025 SCT090 54 53.1 64.9 54 97% 29.81 1010.1 0.13 0.46
10 00:51 Calm 4.00 Light Rain FEW025 BKN034 OVC060 55 54 96% 29.83 1010.8 0.04
09 23:51 S 6 10.00 Mostly Cloudy FEW050 SCT070 BKN090 54 53.1 97% 29.8 1009.9 0.06
09 22:51 S 3 4.00 Light Rain Fog/Mist FEW020 BKN050 OVC065 55 53.1 93% 29.83 1010.8 0.23 0.23
09 21:51 N 7 10.00 Overcast FEW045 BKN090 OVC110 62.1 48 60% 29.8 1009.7
09 20:51 S 7 10.00 Mostly Cloudy FEW050 SCT100 BKN200 63 46.9 56% 29.75 1007.9
09 19:51 S 12 10.00 Partly Cloudy FEW045 FEW100 SCT220 64.9 46 66.9 59 51% 29.73 1007.4
09 18:51 SW 15 G 24 10.00 Partly Cloudy FEW045 SCT250 66.9 46 47% 29.73 1007.1
09 17:51 S 15 G 25 10.00 Partly Cloudy SCT042 SCT250 66.9 46 47% 29.73 1007.2
09 16:51 SW 14 G 22 10.00 Mostly Cloudy SCT036 BKN048 66 46.9 50% 29.74 1007.7
09 15:51 SW 13 G 22 10.00 Mostly Cloudy SCT030 BKN042 64 48 56% 29.76 1008.3
09 14:51 SW 14 G 23 10.00 Mostly Cloudy SCT026 BKN040 62.1 48.9 62% 29.78 1009.1
09 13:51 SW 13 10.00 Light Rain BKN024 BKN037 59 48.9 60.1 51.1 69% 29.79 1009.6 0.07
09 12:51 SW 14 G 21 10.00 Mostly Cloudy BKN020 BKN032 59 48.9 69% 29.78 1009.3
09 11:51 SW 13 10.00 Mostly Cloudy BKN015 BKN050 57 48.9 74% 29.77 1008.9
09 10:51 SW 9 10.00 Light Rain BKN013 OVC045 54 50 87% 29.78 1009.3 0.07
09 09:51 SW 8 10.00 Light Rain BKN010 OVC036 53.1 50 89% 29.78 1009.2 0.02
09 08:51 SW 12 4.00 Light Rain Fog/Mist FEW009 BKN020 OVC043 51.1 48.9 92% 29.79 1009.6 0.05
09 07:51 S 8 8.00 Light Rain FEW025 BKN045 OVC070 51.1 48.9 52 48.9 92% 29.79 1009.6 0.03 0.04
09 06:51 SW 10 6.00 Light Rain Fog/Mist FEW030 BKN045 OVC065 51.1 48 89% 29.78 1009.2
09 05:51 SW 8 8.00 Light Rain FEW001 FEW030 OVC055 52 46.9 83% 29.78 1009.3 0.01
09 04:51 SE 3 5.00 Light Rain Fog/Mist FEW001 OVC055 48.9 48 97% 29.79 1009.7
09 03:51 Calm 5.00 Light Rain Fog/Mist FEW001 OVC070 48.9 48 97% 29.8 1010.0
09 02:51 Calm 6.00 Fog/Mist FEW001 OVC070 48.9 46.9 93% 29.8 1010.0
09 01:51 E 3 10.00 Overcast SCT070 OVC095 48.9 46.9 54 48.9 93% 29.82 1010.5 0.03
09 00:51 E 6 10.00 Light Rain FEW070 OVC100 48.9 48 97% 47 29.83 1010.9
08 23:51 E 6 10.00 Overcast SCT060 OVC090 50 48 93% 48 29.85 1011.5
08 22:51 NE 5 10.00 Light Rain OVC060 51.1 48 89% 29.88 1012.5 0.03 0.03
08 21:51 NE 3 9.00 Light Rain OVC060 53.1 46.9 80% 29.87 1012.4
08 20:51 E 6 10.00 Light Rain FEW040 OVC065 53.1 46.9 80% 29.84 1011.3
08 19:51 E 3 10.00 Overcast FEW035 SCT070 OVC100 54 46.9 57.9 54 77% 29.83 1011.1 0.02
08 18:51 NE 5 10.00 Overcast OVC070 54 46.9 77% 29.84 1011.5
08 17:51 Calm 10.00 Light Rain BKN070 OVC090 55.9 43 62% 29.84 1011.6
08 16:51 Vrbl 5 10.00 Light Rain FEW032 BKN060 OVC090 55.9 45 67% 29.85 1011.9 0.01 0.02
08 15:51 W 3 10.00 Light Rain FEW030 OVC050 54 45 72% 29.89 1013.1 0.01
08 14:51 W 8 8.00 Light Rain FEW026 BKN050 OVC085 55.9 41 57% 29.91 1013.7
08 13:51 W 13 G 20 10.00 Light Rain FEW030 BKN055 OVC100 57.9 39.9 60.1 46 51% 29.9 1013.4
08 12:51 SW 13 G 23 10.00 Light Rain BKN050 BKN075 OVC130 59 39 48% 29.9 1013.3
08 11:51 SW 14 G 23 10.00 Mostly Cloudy FEW060 BKN120 BKN250 60.1 37.9 44% 29.91 1013.6
08 10:51 W 12 G 22 10.00 Mostly Cloudy FEW065 SCT130 BKN250 57 37 47% 29.92 1013.8
08 09:51 SW 13 G 20 10.00 Partly Cloudy FEW055 FEW085 SCT250 53.1 34 48% 29.92 1014.0
08 08:51 SW 9 10.00 Mostly Cloudy BKN075 BKN090 48 33.1 56% 44 29.93 1014.5
08 07:51 SW 8 10.00 Mostly Cloudy FEW055 SCT070 BKN095 46 35.1 46 42.1 66% 42 29.92 1014.1
08 06:51 SW 7 10.00 Mostly Cloudy FEW070 BKN100 44.1 32 63% 41 29.92 1013.9
08 05:51 SW 5 10.00 Partly Cloudy FEW060 SCT080 44.1 30.9 60% 42 29.91 1013.6
08 04:51 W 5 10.00 Overcast BKN070 OVC090 44.1 32 63% 42 29.92 1013.9
08 03:51 Calm 10.00 Light Rain SCT070 OVC085 44.1 32 63% 29.91 1013.9
08 02:51 Calm 10.00 Partly Cloudy FEW070 SCT090 42.1 33.1 71% 29.91 1013.8
08 01:51 Calm 10.00 Overcast SCT075 OVC100 42.1 32 55 41 68% 29.92 1014.3
08 00:51 Calm 10.00 Partly Cloudy SCT070 43 32 65% 29.93 1014.6
07 23:51 Calm 10.00 Fair CLR 44.1 32 63% 29.93 1014.4
07 22:51 W 3 10.00 Fair CLR 48 30 50% 29.93 1014.4
07 21:51 W 7 10.00 A Few Clouds FEW090 48 30 50% 45 29.91 1013.9
07 20:51 NW 9 10.00 A Few Clouds FEW070 FEW090 52 28.9 41% 29.89 1013.1
07 19:51 NW 16 G 28 10.00 Partly Cloudy FEW070 SCT090 55 30 62.1 55 38% 29.86 1012.2
07 18:51 NW 16 G 24 10.00 Mostly Cloudy SCT070 BKN085 57 30 36% 29.85 1011.8
07 17:51 W 15 G 25 10.00 Mostly Cloudy BKN075 57.9 28.9 33% 29.83 1011.1
07 16:51 NW 17 10.00 Mostly Cloudy BKN075 BKN250 60.1 28.9 31% 29.82 1010.7
07 15:51 W 12 G 23 10.00 Mostly Cloudy BKN070 BKN250 59 28 31% 29.83 1010.9
07 14:51 W 7 G 16 10.00 Mostly Cloudy BKN065 BKN250 59 30.9 35% 29.84 1011.2
07 13:51 W 13 G 23 10.00 Mostly Cloudy BKN060 BKN250 57.9 33.1 59 43 39% 29.85 1011.6
Date Time (edt) Wind (mph) Vis. (mi.) Weather Sky Cond. Air Dwpt Max. Min. Relative Humidity Wind Chill (°F) Heat Index (°F) altimeter (in) sea level (mb) 1 hr 3 hr 6 hr
6 hour
Temperature (ºF) Pressure Precipitation (in)